createdAt,value
2022-08-09T00:02:00.133Z,6
2022-08-09T00:07:52.291Z,6.1
2022-08-09T00:13:52.667Z,6.5
2022-08-09T00:19:56.400Z,7.6
2022-08-09T00:25:55.116Z,7
2022-08-09T00:32:06.261Z,8.5
2022-08-09T00:38:04.572Z,7.4
2022-08-09T00:44:34.736Z,7.4
2022-08-09T00:50:30.902Z,8.4
2022-08-09T00:56:29.383Z,8.2
2022-08-09T01:02:21.938Z,6.3
2022-08-09T01:08:17.767Z,8.8
2022-08-09T01:14:37.548Z,6.9
2022-08-09T01:20:36.553Z,7.7
2022-08-09T01:26:41.720Z,8.5
2022-08-09T01:33:02.353Z,9.1
2022-08-09T01:39:04.084Z,9.3
2022-08-09T01:45:19.670Z,11.4
2022-08-09T01:51:34.659Z,10.1
2022-08-09T01:57:44.204Z,10.8
2022-08-09T02:03:54.960Z,8.2
2022-08-09T02:10:13.390Z,9.2
2022-08-09T02:17:14.885Z,9.8
2022-08-09T02:24:51.693Z,9.6
2022-08-09T02:30:48.501Z,9.6
2022-08-09T02:36:55.908Z,8.3
2022-08-09T02:42:54.983Z,9.5
2022-08-09T03:02:21.249Z,8.5
2022-08-09T03:08:19.783Z,9.3
2022-08-09T03:14:31.430Z,8.5
2022-08-09T03:20:39.285Z,10.3
2022-08-09T03:27:02.873Z,9.9
2022-08-09T03:33:58.043Z,8.5
2022-08-09T03:40:13.158Z,10.5
2022-08-09T03:46:46.877Z,10.1
2022-08-09T03:52:59.648Z,10.7
2022-08-09T03:59:27.013Z,10.5
2022-08-09T04:06:01.673Z,9.4
2022-08-09T04:12:04.568Z,9.9
2022-08-09T04:18:21.329Z,9.4
2022-08-09T04:30:57.265Z,13.8
2022-08-09T04:37:02.540Z,11.6
2022-08-09T04:43:05.515Z,14.5
2022-08-09T04:56:10.018Z,11.4
2022-08-09T05:02:19.652Z,12.9
2022-08-09T05:08:31.966Z,15.9
2022-08-09T05:14:38.221Z,14.5
2022-08-09T05:20:41.852Z,15.2
2022-08-09T05:26:53.726Z,14.9
2022-08-09T05:33:03.661Z,16.6
2022-08-09T05:39:21.725Z,16.4
2022-08-09T05:45:59.383Z,12.1
2022-08-09T05:51:56.159Z,12.3
2022-08-09T05:58:08.574Z,14.6
2022-08-09T06:04:14.443Z,14.9
2022-08-09T06:10:25.536Z,12
2022-08-09T06:16:21.952Z,11
2022-08-09T06:22:35.738Z,11.8
2022-08-09T06:28:35.141Z,11.4
2022-08-09T06:34:38.173Z,8.5
2022-08-09T06:40:31.013Z,8.9
2022-08-09T06:46:47.326Z,9.7
2022-08-09T06:52:44.465Z,8.1
2022-08-09T07:01:03.063Z,9.8
2022-08-09T07:07:06.605Z,8.3
2022-08-09T07:14:11.720Z,9.3
2022-08-09T07:20:19.787Z,8.6
2022-08-09T07:26:13.486Z,9.8
2022-08-09T07:32:05.302Z,7.8
2022-08-09T07:38:03.429Z,7.2
2022-08-09T07:44:03.237Z,7.6
2022-08-09T07:50:12.278Z,8.7
2022-08-09T07:56:32.509Z,8.6
2022-08-09T08:02:24.685Z,7.8
2022-08-09T08:09:46.083Z,7.8
2022-08-09T08:15:54.941Z,12.1
2022-08-09T08:22:03.185Z,9.4
2022-08-09T08:27:59.714Z,9
2022-08-09T08:34:02.347Z,9.8
2022-08-09T08:39:58.007Z,6.8
2022-08-09T08:47:05.297Z,8.3
2022-08-09T08:53:21.709Z,7.5
2022-08-09T08:59:49.111Z,8.4
2022-08-09T09:06:11.275Z,7.6
2022-08-09T09:12:02.745Z,8.9
2022-08-09T09:17:58.878Z,7.2
2022-08-09T09:24:23.316Z,9.4
2022-08-09T09:30:50.682Z,9.3
2022-08-09T09:36:39.071Z,6.8
2022-08-09T09:42:50.615Z,6.4
2022-08-09T09:48:50.716Z,7.1
2022-08-09T09:54:42.662Z,6.5
2022-08-09T10:01:01.257Z,8.1
2022-08-09T10:07:09.898Z,6.8
2022-08-09T10:13:06.563Z,6.4
2022-08-09T10:19:33.271Z,7
2022-08-09T10:26:10.910Z,6.7
2022-08-09T10:32:54.159Z,9.4
2022-08-09T10:39:18.259Z,7.8
2022-08-09T10:45:18.356Z,8.5
2022-08-09T10:51:13.599Z,6.6
2022-08-09T10:57:11.951Z,7.8
2022-08-09T11:04:06.124Z,6
2022-08-09T11:10:21.015Z,6.5
2022-08-09T11:16:43.808Z,8.6
2022-08-09T11:22:46.061Z,6.1
2022-08-09T11:29:02.935Z,4.2
2022-08-09T11:34:56.324Z,8
2022-08-09T11:40:49.017Z,6.2
2022-08-09T11:46:46.614Z,3.7
2022-08-09T11:54:21.797Z,5.2
2022-08-09T12:00:36.636Z,6.5
2022-08-09T12:06:38.468Z,5
2022-08-09T12:12:47.987Z,4.5
2022-08-09T12:18:53.677Z,6.2
2022-08-09T12:24:52.889Z,4.2
2022-08-09T12:30:45.752Z,4.3
2022-08-09T12:36:45.283Z,4.3
2022-08-09T12:42:53.528Z,4.6
2022-08-09T12:48:47.494Z,7.8
2022-08-09T12:54:39.077Z,3.6
2022-08-09T13:00:54.494Z,5
2022-08-09T13:06:48.749Z,5.5
2022-08-09T13:14:38.237Z,3.9
2022-08-09T13:24:05.831Z,4.5
2022-08-09T13:32:30.177Z,4.7
2022-08-09T13:41:21.330Z,5.1
2022-08-09T13:48:03.567Z,4.1
2022-08-09T13:54:03.964Z,5.4
2022-08-09T14:00:03.193Z,4.3
2022-08-09T14:06:29.485Z,5
2022-08-09T14:12:30.356Z,3.8
2022-08-09T14:18:39.254Z,4.4
2022-08-09T14:24:55.869Z,4.3
2022-08-09T14:30:51.453Z,4.9
2022-08-09T14:36:50.269Z,7.1
2022-08-09T14:42:47.037Z,7.2
2022-08-09T14:48:38.701Z,3.9
2022-08-09T14:54:36.965Z,4.6
2022-08-09T15:00:35.230Z,7.6
2022-08-09T15:06:35.793Z,7.1
2022-08-09T15:12:30.442Z,6.3
2022-08-09T15:18:27.247Z,6.5
2022-08-09T15:24:30.020Z,5.3
2022-08-09T15:31:20.911Z,14.9
2022-08-09T15:38:13.487Z,28.4
2022-08-09T15:44:05.623Z,10.5
2022-08-09T15:50:08.846Z,5.8
2022-08-09T15:56:35.243Z,6.9
2022-08-09T16:02:35.560Z,6.3
2022-08-09T16:08:35.312Z,6.2
2022-08-09T16:14:41.851Z,7
2022-08-09T16:20:43.321Z,4.3
2022-08-09T16:26:51.621Z,5.2
2022-08-09T16:32:56.952Z,7.2
2022-08-09T16:38:58.553Z,6
2022-08-09T16:44:52.825Z,5.2
2022-08-09T16:51:13.605Z,7.6
2022-08-09T16:57:03.398Z,7.1
2022-08-09T17:02:58.962Z,6.6
2022-08-09T17:09:51.864Z,5.3
2022-08-09T17:16:05.990Z,6.9
2022-08-09T17:22:00.837Z,4.6
2022-08-09T17:27:57.499Z,7.4
2022-08-09T17:34:02.000Z,6.3
2022-08-09T17:40:21.758Z,6
2022-08-09T17:46:19.398Z,5.7
2022-08-09T17:52:33.743Z,4.9
2022-08-09T17:58:30.665Z,6.8
2022-08-09T18:04:24.491Z,4.4
2022-08-09T18:10:20.239Z,6.7
2022-08-09T18:16:33.222Z,6.9
2022-08-09T18:22:51.097Z,7.5
2022-08-09T18:30:53.231Z,6
2022-08-09T18:36:55.204Z,9.4
2022-08-09T18:42:59.422Z,6.5
2022-08-09T18:48:54.878Z,7.4
2022-08-09T18:55:03.254Z,5.5
2022-08-09T19:01:06.012Z,7.9
2022-08-09T19:20:38.909Z,6.3
2022-08-09T19:33:43.613Z,5.7
2022-08-09T19:47:13.225Z,7.6
2022-08-09T19:53:13.056Z,6.8
2022-08-09T20:13:03.603Z,7
2022-08-09T20:44:32.215Z,6.4
2022-08-09T20:51:03.423Z,7.9
2022-08-09T20:57:15.110Z,7.7
2022-08-09T21:06:05.764Z,7.3
2022-08-09T21:12:21.297Z,8
2022-08-09T21:20:42.321Z,5.1
2022-08-09T21:26:43.904Z,6.2
2022-08-09T21:32:49.184Z,5.7
2022-08-09T21:39:17.194Z,6.6
2022-08-09T21:45:41.051Z,6.5
2022-08-09T21:51:53.545Z,5.5
2022-08-09T21:58:08.233Z,4.9
2022-08-09T22:04:08.547Z,7.6
2022-08-09T22:10:08.503Z,6.1
2022-08-09T22:16:07.379Z,9
2022-08-09T22:22:00.802Z,4.8
2022-08-09T22:27:58.975Z,6.7
2022-08-09T22:34:16.591Z,6
2022-08-09T22:40:22.337Z,8.1
2022-08-09T22:48:52.445Z,6
2022-08-09T22:54:54.743Z,8
2022-08-09T23:00:53.040Z,7.3
2022-08-09T23:06:59.125Z,6
2022-08-09T23:13:01.793Z,5.7
2022-08-09T23:18:55.999Z,5.5
2022-08-09T23:24:58.557Z,5.2
2022-08-09T23:30:56.845Z,7.3
2022-08-09T23:37:00.041Z,6.6
2022-08-09T23:42:56.567Z,5.5
2022-08-09T23:48:49.386Z,6.5
2022-08-09T23:54:47.837Z,6.4
